sensor_id;sensor_type;location;lat;lon;timestamp;pressure;altitude;pressure_sealevel;temperature;humidity
21086;BME280;72320;50.082;20.000;2024-02-23T00:00:53;97182.50;;;11.15;51.56
21086;BME280;72320;50.082;20.000;2024-02-23T00:03:19;97185.27;;;11.17;51.53
21086;BME280;72320;50.082;20.000;2024-02-23T00:05:45;97183.48;;;11.17;51.56
21086;BME280;72320;50.082;20.000;2024-02-23T00:08:10;97176.67;;;11.20;51.47
21086;BME280;72320;50.082;20.000;2024-02-23T00:10:36;97172.90;;;11.19;51.49
21086;BME280;72320;50.082;20.000;2024-02-23T00:13:02;97166.98;;;11.19;51.58
21086;BME280;72320;50.082;20.000;2024-02-23T00:54:48;97168.95;;;10.86;53.29
21086;BME280;72320;50.082;20.000;2024-02-23T00:57:14;97170.17;;;10.88;53.29
21086;BME280;72320;50.082;20.000;2024-02-23T00:59:41;97167.39;;;10.93;53.19
21086;BME280;72320;50.082;20.000;2024-02-23T01:02:07;97166.06;;;10.97;53.28
21086;BME280;72320;50.082;20.000;2024-02-23T01:04:32;97161.13;;;10.99;53.14
21086;BME280;72320;50.082;20.000;2024-02-23T01:06:58;97157.42;;;11.01;53.16
21086;BME280;72320;50.082;20.000;2024-02-23T01:09:24;97157.78;;;11.04;53.25
21086;BME280;72320;50.082;20.000;2024-02-23T01:11:50;97158.36;;;11.05;53.21
21086;BME280;72320;50.082;20.000;2024-02-23T01:14:16;97157.08;;;11.03;53.52
21086;BME280;72320;50.082;20.000;2024-02-23T01:16:42;97160.98;;;10.99;53.53
21086;BME280;72320;50.082;20.000;2024-02-23T01:19:08;97164.59;;;10.94;54.00
21086;BME280;72320;50.082;20.000;2024-02-23T01:21:34;97159.59;;;10.85;54.22
21086;BME280;72320;50.082;20.000;2024-02-23T01:24:00;97157.25;;;10.78;54.67
21086;BME280;72320;50.082;20.000;2024-02-23T01:26:26;97157.80;;;10.72;55.07
21086;BME280;72320;50.082;20.000;2024-02-23T01:28:53;97159.31;;;10.66;55.45
21086;BME280;72320;50.082;20.000;2024-02-23T01:31:19;97161.66;;;10.59;55.82
21086;BME280;72320;50.082;20.000;2024-02-23T01:33:45;97162.80;;;10.50;56.28
21086;BME280;72320;50.082;20.000;2024-02-23T01:36:11;97156.69;;;10.43;56.63
21086;BME280;72320;50.082;20.000;2024-02-23T01:38:37;97150.84;;;10.35;56.99
21086;BME280;72320;50.082;20.000;2024-02-23T01:41:03;97151.45;;;10.31;57.29
21086;BME280;72320;50.082;20.000;2024-02-23T01:43:29;97148.13;;;10.32;57.51
21086;BME280;72320;50.082;20.000;2024-02-23T01:45:55;97143.13;;;10.35;57.69
21086;BME280;72320;50.082;20.000;2024-02-23T01:48:21;97136.33;;;10.37;57.82
21086;BME280;72320;50.082;20.000;2024-02-23T01:50:47;97140.00;;;10.42;57.95
21086;BME280;72320;50.082;20.000;2024-02-23T01:53:13;97136.86;;;10.47;57.92
21086;BME280;72320;50.082;20.000;2024-02-23T01:55:41;97138.69;;;10.52;57.98
21086;BME280;72320;50.082;20.000;2024-02-23T01:58:08;97134.30;;;10.55;58.04
21086;BME280;72320;50.082;20.000;2024-02-23T02:00:35;97127.33;;;10.53;58.15
21086;BME280;72320;50.082;20.000;2024-02-23T02:03:01;97123.39;;;10.54;58.09
21086;BME280;72320;50.082;20.000;2024-02-23T02:05:27;97126.83;;;10.51;58.40
21086;BME280;72320;50.082;20.000;2024-02-23T02:07:56;97128.32;;;10.52;58.34
21086;BME280;72320;50.082;20.000;2024-02-23T02:10:25;97132.38;;;10.53;58.45
21086;BME280;72320;50.082;20.000;2024-02-23T02:12:52;97127.89;;;10.54;58.43
21086;BME280;72320;50.082;20.000;2024-02-23T02:15:18;97122.95;;;10.56;58.39
21086;BME280;72320;50.082;20.000;2024-02-23T02:17:45;97126.71;;;10.60;58.32
21086;BME280;72320;50.082;20.000;2024-02-23T02:20:12;97124.06;;;10.64;58.20
21086;BME280;72320;50.082;20.000;2024-02-23T02:22:39;97125.82;;;10.66;58.17
21086;BME280;72320;50.082;20.000;2024-02-23T02:25:06;97124.75;;;10.68;57.90
21086;BME280;72320;50.082;20.000;2024-02-23T02:27:32;97126.21;;;10.67;58.01
21086;BME280;72320;50.082;20.000;2024-02-23T02:29:58;97129.38;;;10.69;57.87
21086;BME280;72320;50.082;20.000;2024-02-23T02:32:24;97133.14;;;10.70;57.86
21086;BME280;72320;50.082;20.000;2024-02-23T02:34:50;97138.64;;;10.71;57.74
21086;BME280;72320;50.082;20.000;2024-02-23T02:37:16;97136.97;;;10.70;57.73
21086;BME280;72320;50.082;20.000;2024-02-23T02:39:42;97140.14;;;10.69;57.74
21086;BME280;72320;50.082;20.000;2024-02-23T02:42:08;97138.77;;;10.67;57.77
21086;BME280;72320;50.082;20.000;2024-02-23T02:44:34;97138.86;;;10.67;57.68
21086;BME280;72320;50.082;20.000;2024-02-23T02:47:00;97136.39;;;10.69;57.74
21086;BME280;72320;50.082;20.000;2024-02-23T02:49:26;97139.67;;;10.69;57.69
21086;BME280;72320;50.082;20.000;2024-02-23T02:51:52;97137.55;;;10.69;57.60
21086;BME280;72320;50.082;20.000;2024-02-23T02:54:18;97138.47;;;10.71;57.56
21086;BME280;72320;50.082;20.000;2024-02-23T02:56:44;97137.08;;;10.72;57.46
21086;BME280;72320;50.082;20.000;2024-02-23T02:59:12;97137.67;;;10.70;57.37
21086;BME280;72320;50.082;20.000;2024-02-23T03:01:39;97138.44;;;10.70;57.34
21086;BME280;72320;50.082;20.000;2024-02-23T03:04:05;97137.63;;;10.69;57.27
21086;BME280;72320;50.082;20.000;2024-02-23T03:06:31;97137.55;;;10.68;57.28
21086;BME280;72320;50.082;20.000;2024-02-23T03:08:57;97140.09;;;10.70;57.25
21086;BME280;72320;50.082;20.000;2024-02-23T03:11:23;97137.27;;;10.73;57.18
21086;BME280;72320;50.082;20.000;2024-02-23T03:13:49;97134.72;;;10.74;57.12
21086;BME280;72320;50.082;20.000;2024-02-23T03:16:18;97133.33;;;10.75;57.05
21086;BME280;72320;50.082;20.000;2024-02-23T03:18:44;97130.79;;;10.77;57.01
21086;BME280;72320;50.082;20.000;2024-02-23T03:21:11;97130.44;;;10.78;56.82
21086;BME280;72320;50.082;20.000;2024-02-23T03:23:37;97127.65;;;10.83;56.72
21086;BME280;72320;50.082;20.000;2024-02-23T03:26:03;97129.84;;;10.87;56.56
21086;BME280;72320;50.082;20.000;2024-02-23T03:28:29;97131.25;;;10.91;56.37
21086;BME280;72320;50.082;20.000;2024-02-23T03:30:54;97130.97;;;10.92;56.39
21086;BME280;72320;50.082;20.000;2024-02-23T03:33:20;97129.66;;;10.90;56.33
21086;BME280;72320;50.082;20.000;2024-02-23T03:35:46;97130.05;;;10.90;56.20
21086;BME280;72320;50.082;20.000;2024-02-23T03:38:12;97131.83;;;10.89;56.18
21086;BME280;72320;50.082;20.000;2024-02-23T03:40:38;97134.34;;;10.90;56.10
21086;BME280;72320;50.082;20.000;2024-02-23T03:43:04;97133.20;;;10.92;55.99
21086;BME280;72320;50.082;20.000;2024-02-23T03:45:31;97136.06;;;10.94;55.93
21086;BME280;72320;50.082;20.000;2024-02-23T03:47:58;97141.14;;;10.98;55.83
21086;BME280;72320;50.082;20.000;2024-02-23T03:50:23;97140.27;;;10.98;55.72
21086;BME280;72320;50.082;20.000;2024-02-23T03:52:49;97147.11;;;10.96;55.50
21086;BME280;72320;50.082;20.000;2024-02-23T03:55:15;97149.71;;;10.98;55.45
21086;BME280;72320;50.082;20.000;2024-02-23T03:57:41;97156.16;;;11.00;55.32
21086;BME280;72320;50.082;20.000;2024-02-23T04:00:07;97153.37;;;11.01;55.34
21086;BME280;72320;50.082;20.000;2024-02-23T04:02:34;97158.92;;;11.02;55.22
21086;BME280;72320;50.082;20.000;2024-02-23T04:05:00;97166.11;;;11.06;55.16
21086;BME280;72320;50.082;20.000;2024-02-23T04:07:26;97169.60;;;11.10;55.09
21086;BME280;72320;50.082;20.000;2024-02-23T04:09:52;97172.75;;;11.15;54.97
21086;BME280;72320;50.082;20.000;2024-02-23T04:12:29;97178.80;;;11.13;54.92
21086;BME280;72320;50.082;20.000;2024-02-23T04:14:56;97174.34;;;11.05;55.19
21086;BME280;72320;50.082;20.000;2024-02-23T04:17:22;97173.09;;;10.97;55.55
21086;BME280;72320;50.082;20.000;2024-02-23T04:19:48;97173.33;;;10.90;56.03
21086;BME280;72320;50.082;20.000;2024-02-23T04:22:14;97177.11;;;10.85;56.22
21086;BME280;72320;50.082;20.000;2024-02-23T04:24:41;97177.45;;;10.79;56.41
21086;BME280;72320;50.082;20.000;2024-02-23T04:27:08;97181.02;;;10.71;56.72
21086;BME280;72320;50.082;20.000;2024-02-23T04:29:34;97178.84;;;10.67;57.01
21086;BME280;72320;50.082;20.000;2024-02-23T04:32:01;97184.08;;;10.64;57.25
21086;BME280;72320;50.082;20.000;2024-02-23T04:34:30;97184.42;;;10.62;57.53
21086;BME280;72320;50.082;20.000;2024-02-23T04:36:56;97188.10;;;10.56;57.62
21086;BME280;72320;50.082;20.000;2024-02-23T04:39:22;97190.89;;;10.56;57.96
21086;BME280;72320;50.082;20.000;2024-02-23T04:41:48;97192.19;;;10.54;58.36
21086;BME280;72320;50.082;20.000;2024-02-23T04:44:13;97192.83;;;10.52;58.50
21086;BME280;72320;50.082;20.000;2024-02-23T04:46:39;97196.09;;;10.51;58.69
21086;BME280;72320;50.082;20.000;2024-02-23T04:49:05;97197.11;;;10.52;59.03
21086;BME280;72320;50.082;20.000;2024-02-23T04:51:31;97195.10;;;10.49;59.21
21086;BME280;72320;50.082;20.000;2024-02-23T04:53:57;97198.40;;;10.47;59.67
21086;BME280;72320;50.082;20.000;2024-02-23T04:56:22;97200.86;;;10.46;59.90
21086;BME280;72320;50.082;20.000;2024-02-23T04:58:48;97200.66;;;10.43;59.92
21086;BME280;72320;50.082;20.000;2024-02-23T05:01:15;97201.19;;;10.42;59.90
21086;BME280;72320;50.082;20.000;2024-02-23T05:03:41;97207.54;;;10.44;59.95
21086;BME280;72320;50.082;20.000;2024-02-23T05:06:06;97210.58;;;10.41;60.05
21086;BME280;72320;50.082;20.000;2024-02-23T05:08:32;97211.30;;;10.42;60.27
21086;BME280;72320;50.082;20.000;2024-02-23T05:10:58;97216.06;;;10.43;60.15
21086;BME280;72320;50.082;20.000;2024-02-23T05:13:24;97214.57;;;10.46;60.14
21086;BME280;72320;50.082;20.000;2024-02-23T05:15:50;97220.85;;;10.48;60.27
21086;BME280;72320;50.082;20.000;2024-02-23T05:18:16;97217.23;;;10.47;60.41
21086;BME280;72320;50.082;20.000;2024-02-23T05:20:42;97219.72;;;10.46;60.72
21086;BME280;72320;50.082;20.000;2024-02-23T05:23:08;97223.79;;;10.43;60.95
21086;BME280;72320;50.082;20.000;2024-02-23T05:25:34;97226.42;;;10.43;61.12
21086;BME280;72320;50.082;20.000;2024-02-23T05:28:00;97233.37;;;10.40;61.42
21086;BME280;72320;50.082;20.000;2024-02-23T05:30:26;97234.17;;;10.38;61.49
21086;BME280;72320;50.082;20.000;2024-02-23T05:32:57;97241.90;;;10.35;61.73
21086;BME280;72320;50.082;20.000;2024-02-23T05:35:29;97248.66;;;10.31;61.95
21086;BME280;72320;50.082;20.000;2024-02-23T05:37:55;97249.09;;;10.27;62.24
21086;BME280;72320;50.082;20.000;2024-02-23T05:40:21;97252.93;;;10.26;62.50
21086;BME280;72320;50.082;20.000;2024-02-23T05:42:47;97259.27;;;10.24;62.76
21086;BME280;72320;50.082;20.000;2024-02-23T05:45:15;97262.94;;;10.24;62.98
21086;BME280;72320;50.082;20.000;2024-02-23T05:47:41;97265.23;;;10.22;63.25
21086;BME280;72320;50.082;20.000;2024-02-23T05:50:08;97272.55;;;10.22;63.37
21086;BME280;72320;50.082;20.000;2024-02-23T05:52:35;97273.98;;;10.20;63.53
21086;BME280;72320;50.082;20.000;2024-02-23T05:55:03;97279.62;;;10.18;63.62
21086;BME280;72320;50.082;20.000;2024-02-23T05:57:29;97280.08;;;10.15;63.84
21086;BME280;72320;50.082;20.000;2024-02-23T05:59:55;97284.29;;;10.12;63.98
21086;BME280;72320;50.082;20.000;2024-02-23T06:02:25;97286.73;;;10.07;64.14
21086;BME280;72320;50.082;20.000;2024-02-23T06:04:51;97296.04;;;10.03;64.46
21086;BME280;72320;50.082;20.000;2024-02-23T06:07:17;97298.73;;;10.02;64.66
21086;BME280;72320;50.082;20.000;2024-02-23T06:09:43;97301.17;;;10.00;64.79
21086;BME280;72320;50.082;20.000;2024-02-23T06:12:09;97298.50;;;9.96;65.03
21086;BME280;72320;50.082;20.000;2024-02-23T06:14:36;97301.27;;;9.97;65.28
21086;BME280;72320;50.082;20.000;2024-02-23T06:17:02;97299.62;;;10.00;65.48
21086;BME280;72320;50.082;20.000;2024-02-23T06:19:29;97306.88;;;10.01;65.61
21086;BME280;72320;50.082;20.000;2024-02-23T06:21:55;97309.06;;;10.01;66.00
21086;BME280;72320;50.082;20.000;2024-02-23T06:24:21;97320.96;;;10.04;66.32
21086;BME280;72320;50.082;20.000;2024-02-23T06:26:47;97320.88;;;10.06;66.60
21086;BME280;72320;50.082;20.000;2024-02-23T06:29:15;97322.68;;;10.10;66.89
21086;BME280;72320;50.082;20.000;2024-02-23T06:31:41;97327.05;;;10.13;66.91
21086;BME280;72320;50.082;20.000;2024-02-23T06:34:07;97328.95;;;10.16;67.22
21086;BME280;72320;50.082;20.000;2024-02-23T06:36:33;97332.89;;;10.21;67.20
21086;BME280;72320;50.082;20.000;2024-02-23T06:38:59;97337.19;;;10.30;67.36
21086;BME280;72320;50.082;20.000;2024-02-23T06:41:25;97344.85;;;10.34;67.39
21086;BME280;72320;50.082;20.000;2024-02-23T06:43:52;97350.27;;;10.35;67.37
21086;BME280;72320;50.082;20.000;2024-02-23T06:46:21;97356.92;;;10.40;67.45
21086;BME280;72320;50.082;20.000;2024-02-23T06:48:48;97356.34;;;10.47;67.60
21086;BME280;72320;50.082;20.000;2024-02-23T06:51:14;97352.04;;;10.55;67.58
21086;BME280;72320;50.082;20.000;2024-02-23T06:53:41;97351.31;;;10.67;67.78
21086;BME280;72320;50.082;20.000;2024-02-23T06:56:07;97355.57;;;10.72;67.56
21086;BME280;72320;50.082;20.000;2024-02-23T06:58:34;97361.75;;;10.79;67.37
21086;BME280;72320;50.082;20.000;2024-02-23T07:01:01;97366.45;;;10.93;67.45
21086;BME280;72320;50.082;20.000;2024-02-23T07:03:28;97370.68;;;11.07;67.39
21086;BME280;72320;50.082;20.000;2024-02-23T07:05:55;97375.39;;;11.15;67.26
21086;BME280;72320;50.082;20.000;2024-02-23T07:08:21;97375.62;;;11.18;67.17
21086;BME280;72320;50.082;20.000;2024-02-23T07:10:47;97379.27;;;11.14;67.15
21086;BME280;72320;50.082;20.000;2024-02-23T07:13:12;97378.49;;;11.14;67.22
21086;BME280;72320;50.082;20.000;2024-02-23T07:15:38;97380.81;;;11.13;67.20
21086;BME280;72320;50.082;20.000;2024-02-23T07:18:05;97383.27;;;11.08;66.98
21086;BME280;72320;50.082;20.000;2024-02-23T07:20:30;97384.23;;;11.09;66.85
21086;BME280;72320;50.082;20.000;2024-02-23T07:22:56;97386.48;;;11.09;66.62
21086;BME280;72320;50.082;20.000;2024-02-23T07:25:22;97394.16;;;11.13;66.43
21086;BME280;72320;50.082;20.000;2024-02-23T07:27:49;97392.67;;;11.20;66.36
21086;BME280;72320;50.082;20.000;2024-02-23T07:30:15;97398.57;;;11.29;66.31
21086;BME280;72320;50.082;20.000;2024-02-23T07:32:43;97400.27;;;11.35;66.26
21086;BME280;72320;50.082;20.000;2024-02-23T07:35:10;97401.61;;;11.35;66.37
21086;BME280;72320;50.082;20.000;2024-02-23T07:37:36;97407.61;;;11.28;66.34
21086;BME280;72320;50.082;20.000;2024-02-23T07:40:03;97415.09;;;11.24;66.34
21086;BME280;72320;50.082;20.000;2024-02-23T07:42:31;97418.20;;;11.24;66.37
21086;BME280;72320;50.082;20.000;2024-02-23T07:44:57;97419.08;;;11.24;66.56
21086;BME280;72320;50.082;20.000;2024-02-23T07:47:23;97423.33;;;11.23;66.89
21086;BME280;72320;50.082;20.000;2024-02-23T07:49:49;97429.46;;;11.22;67.00
21086;BME280;72320;50.082;20.000;2024-02-23T07:52:15;97430.58;;;11.23;67.07
21086;BME280;72320;50.082;20.000;2024-02-23T07:54:41;97434.39;;;11.23;67.19
21086;BME280;72320;50.082;20.000;2024-02-23T07:57:07;97439.30;;;11.23;67.14
21086;BME280;72320;50.082;20.000;2024-02-23T07:59:33;97448.52;;;11.23;67.19
21086;BME280;72320;50.082;20.000;2024-02-23T08:01:59;97451.91;;;11.21;67.26
21086;BME280;72320;50.082;20.000;2024-02-23T08:04:25;97452.92;;;11.18;67.40
21086;BME280;72320;50.082;20.000;2024-02-23T08:06:51;97452.02;;;11.16;67.49
21086;BME280;72320;50.082;20.000;2024-02-23T08:09:19;97456.16;;;11.10;67.71
21086;BME280;72320;50.082;20.000;2024-02-23T08:11:47;97461.16;;;11.07;68.02
21086;BME280;72320;50.082;20.000;2024-02-23T08:14:16;97458.34;;;11.04;68.07
21086;BME280;72320;50.082;20.000;2024-02-23T08:16:42;97461.69;;;11.00;68.27
21086;BME280;72320;50.082;20.000;2024-02-23T08:19:08;97458.98;;;10.98;68.51
21086;BME280;72320;50.082;20.000;2024-02-23T08:21:34;97457.85;;;10.90;68.60
21086;BME280;72320;50.082;20.000;2024-02-23T08:24:00;97461.90;;;10.81;68.86
21086;BME280;72320;50.082;20.000;2024-02-23T08:26:25;97465.70;;;10.68;68.98
21086;BME280;72320;50.082;20.000;2024-02-23T08:28:51;97468.42;;;10.57;68.97
21086;BME280;72320;50.082;20.000;2024-02-23T08:31:17;97474.19;;;10.43;69.05
21086;BME280;72320;50.082;20.000;2024-02-23T08:33:43;97472.61;;;10.18;69.01
21086;BME280;72320;50.082;20.000;2024-02-23T08:36:10;97473.48;;;10.03;69.15
21086;BME280;72320;50.082;20.000;2024-02-23T08:38:36;97470.40;;;10.02;69.28
21086;BME280;72320;50.082;20.000;2024-02-23T08:41:02;97481.16;;;10.07;69.55
21086;BME280;72320;50.082;20.000;2024-02-23T08:43:28;97478.63;;;10.14;69.64
21086;BME280;72320;50.082;20.000;2024-02-23T08:45:54;97482.08;;;10.17;69.78
21086;BME280;72320;50.082;20.000;2024-02-23T08:48:19;97483.58;;;10.20;70.01
21086;BME280;72320;50.082;20.000;2024-02-23T08:50:45;97488.59;;;10.19;70.14
21086;BME280;72320;50.082;20.000;2024-02-23T08:53:11;97492.44;;;10.12;70.06
21086;BME280;72320;50.082;20.000;2024-02-23T08:55:37;97495.04;;;10.08;70.13
21086;BME280;72320;50.082;20.000;2024-02-23T08:58:03;97493.73;;;10.11;70.39
21086;BME280;72320;50.082;20.000;2024-02-23T09:00:28;97485.80;;;10.22;70.42
21086;BME280;72320;50.082;20.000;2024-02-23T09:02:54;97490.23;;;10.35;70.39
21086;BME280;72320;50.082;20.000;2024-02-23T09:05:20;97498.46;;;10.42;70.43
21086;BME280;72320;50.082;20.000;2024-02-23T09:07:46;97499.98;;;10.38;70.29
21086;BME280;72320;50.082;20.000;2024-02-23T09:10:12;97502.16;;;10.25;70.39
21086;BME280;72320;50.082;20.000;2024-02-23T09:12:38;97507.39;;;10.19;70.44
21086;BME280;72320;50.082;20.000;2024-02-23T09:15:04;97509.91;;;10.13;70.49
21086;BME280;72320;50.082;20.000;2024-02-23T09:17:31;97513.90;;;10.11;70.54
21086;BME280;72320;50.082;20.000;2024-02-23T09:19:57;97522.45;;;10.08;70.69
21086;BME280;72320;50.082;20.000;2024-02-23T09:22:23;97522.83;;;9.97;70.72
21086;BME280;72320;50.082;20.000;2024-02-23T09:24:49;97518.52;;;9.98;71.01
21086;BME280;72320;50.082;20.000;2024-02-23T09:27:15;97518.17;;;10.03;71.19
21086;BME280;72320;50.082;20.000;2024-02-23T09:29:41;97516.38;;;10.13;71.43
21086;BME280;72320;50.082;20.000;2024-02-23T09:32:08;97517.64;;;10.22;71.41
21086;BME280;72320;50.082;20.000;2024-02-23T09:34:34;97523.04;;;10.22;71.50
21086;BME280;72320;50.082;20.000;2024-02-23T09:37:00;97528.75;;;10.10;71.55
21086;BME280;72320;50.082;20.000;2024-02-23T09:39:25;97535.75;;;10.12;71.54
21086;BME280;72320;50.082;20.000;2024-02-23T09:41:56;97537.01;;;10.13;71.76
21086;BME280;72320;50.082;20.000;2024-02-23T09:44:33;97543.40;;;10.15;71.82
21086;BME280;72320;50.082;20.000;2024-02-23T09:47:04;97549.27;;;10.16;71.80
21086;BME280;72320;50.082;20.000;2024-02-23T09:49:43;97554.02;;;10.19;71.90
21086;BME280;72320;50.082;20.000;2024-02-23T09:52:13;97563.45;;;10.27;71.91
21086;BME280;72320;50.082;20.000;2024-02-23T09:54:39;97563.60;;;10.34;71.82
21086;BME280;72320;50.082;20.000;2024-02-23T09:57:08;97573.88;;;10.34;71.92
21086;BME280;72320;50.082;20.000;2024-02-23T09:59:35;97574.18;;;10.33;71.75
21086;BME280;72320;50.082;20.000;2024-02-23T10:02:08;97582.15;;;10.32;71.54
21086;BME280;72320;50.082;20.000;2024-02-23T10:04:39;97585.37;;;10.33;71.60
21086;BME280;72320;50.082;20.000;2024-02-23T10:07:06;97586.80;;;10.29;71.46
21086;BME280;72320;50.082;20.000;2024-02-23T10:09:32;97587.55;;;10.28;71.48
21086;BME280;72320;50.082;20.000;2024-02-23T10:11:58;97588.79;;;10.35;71.59
21086;BME280;72320;50.082;20.000;2024-02-23T10:14:24;97588.64;;;10.38;71.56
21086;BME280;72320;50.082;20.000;2024-02-23T10:16:50;97589.19;;;10.40;71.63
21086;BME280;72320;50.082;20.000;2024-02-23T10:19:19;97591.02;;;10.47;71.62
21086;BME280;72320;50.082;20.000;2024-02-23T10:21:46;97591.38;;;10.67;71.75
21086;BME280;72320;50.082;20.000;2024-02-23T10:24:14;97588.16;;;10.82;71.58
21086;BME280;72320;50.082;20.000;2024-02-23T10:26:41;97588.61;;;10.87;71.38
21086;BME280;72320;50.082;20.000;2024-02-23T10:29:07;97587.34;;;10.92;71.19
21086;BME280;72320;50.082;20.000;2024-02-23T10:31:37;97588.56;;;10.95;70.95
21086;BME280;72320;50.082;20.000;2024-02-23T10:34:08;97583.40;;;11.08;70.96
21086;BME280;72320;50.082;20.000;2024-02-23T10:36:42;97583.91;;;11.22;70.94
21086;BME280;72320;50.082;20.000;2024-02-23T10:39:09;97583.15;;;11.28;70.97
21086;BME280;72320;50.082;20.000;2024-02-23T10:41:36;97588.21;;;11.48;70.92
21086;BME280;72320;50.082;20.000;2024-02-23T10:44:04;97593.19;;;11.76;70.82
21086;BME280;72320;50.082;20.000;2024-02-23T10:46:32;97595.51;;;11.89;70.46
21086;BME280;72320;50.082;20.000;2024-02-23T10:48:59;97596.75;;;11.96;70.36
21086;BME280;72320;50.082;20.000;2024-02-23T10:51:25;97594.02;;;12.06;70.23
21086;BME280;72320;50.082;20.000;2024-02-23T10:53:52;97593.60;;;12.29;70.15
21086;BME280;72320;50.082;20.000;2024-02-23T10:56:18;97592.04;;;12.57;69.95
21086;BME280;72320;50.082;20.000;2024-02-23T10:58:45;97594.55;;;12.73;69.49
21086;BME280;72320;50.082;20.000;2024-02-23T11:01:13;97595.08;;;12.78;68.84
21086;BME280;72320;50.082;20.000;2024-02-23T11:03:43;97599.19;;;12.77;68.27
21086;BME280;72320;50.082;20.000;2024-02-23T11:06:12;97599.46;;;12.78;67.77
21086;BME280;72320;50.082;20.000;2024-02-23T11:08:38;97591.50;;;12.73;67.13
21086;BME280;72320;50.082;20.000;2024-02-23T11:11:12;97595.38;;;12.82;66.66
21086;BME280;72320;50.082;20.000;2024-02-23T11:13:40;97597.34;;;12.98;66.13
21086;BME280;72320;50.082;20.000;2024-02-23T11:16:08;97600.11;;;12.95;65.55
21086;BME280;72320;50.082;20.000;2024-02-23T11:18:37;97598.68;;;12.91;64.98
21086;BME280;72320;50.082;20.000;2024-02-23T11:21:05;97601.50;;;13.07;64.75
21086;BME280;72320;50.082;20.000;2024-02-23T11:23:53;97605.06;;;13.12;64.21
21086;BME280;72320;50.082;20.000;2024-02-23T11:26:23;97609.10;;;13.07;63.74
21086;BME280;72320;50.082;20.000;2024-02-23T11:28:52;97607.33;;;13.09;63.46
21086;BME280;72320;50.082;20.000;2024-02-23T11:31:22;97612.29;;;13.05;63.09
21086;BME280;72320;50.082;20.000;2024-02-23T11:33:57;97608.64;;;12.99;62.86
21086;BME280;72320;50.082;20.000;2024-02-23T11:36:24;97609.87;;;13.02;62.68
21086;BME280;72320;50.082;20.000;2024-02-23T11:38:53;97607.19;;;12.97;62.45
21086;BME280;72320;50.082;20.000;2024-02-23T11:41:23;97601.23;;;12.85;62.16
21086;BME280;72320;50.082;20.000;2024-02-23T11:43:54;97605.45;;;12.89;62.05
21086;BME280;72320;50.082;20.000;2024-02-23T11:46:26;97609.02;;;12.91;61.72
21086;BME280;72320;50.082;20.000;2024-02-23T11:48:52;97607.54;;;13.03;61.52
21086;BME280;72320;50.082;20.000;2024-02-23T11:51:22;97610.37;;;13.19;61.17
21086;BME280;72320;50.082;20.000;2024-02-23T11:53:49;97610.22;;;13.28;60.73
21086;BME280;72320;50.082;20.000;2024-02-23T11:56:16;97614.56;;;13.30;60.28
21086;BME280;72320;50.082;20.000;2024-02-23T11:58:43;97613.73;;;13.23;60.03
21086;BME280;72320;50.082;20.000;2024-02-23T12:01:09;97610.33;;;13.18;59.99
21086;BME280;72320;50.082;20.000;2024-02-23T12:03:35;97612.58;;;13.17;59.96
21086;BME280;72320;50.082;20.000;2024-02-23T12:06:02;97611.84;;;13.14;59.92
21086;BME280;72320;50.082;20.000;2024-02-23T12:08:30;97617.02;;;13.03;59.84
21086;BME280;72320;50.082;20.000;2024-02-23T12:11:05;97624.42;;;13.14;59.85
21086;BME280;72320;50.082;20.000;2024-02-23T12:13:31;97626.42;;;13.27;59.59
21086;BME280;72320;50.082;20.000;2024-02-23T12:15:57;97625.78;;;13.38;59.16
21086;BME280;72320;50.082;20.000;2024-02-23T12:18:23;97629.05;;;13.58;59.03
21086;BME280;72320;50.082;20.000;2024-02-23T12:20:52;97627.86;;;13.80;58.80
21086;BME280;72320;50.082;20.000;2024-02-23T12:23:18;97626.08;;;13.86;58.51
21086;BME280;72320;50.082;20.000;2024-02-23T12:25:56;97631.60;;;13.88;58.27
21086;BME280;72320;50.082;20.000;2024-02-23T12:28:23;97638.11;;;13.80;58.04
21086;BME280;72320;50.082;20.000;2024-02-23T12:31:06;97640.72;;;13.76;58.08
21086;BME280;72320;50.082;20.000;2024-02-23T12:33:34;97646.15;;;13.74;58.10
21086;BME280;72320;50.082;20.000;2024-02-23T12:36:02;97643.77;;;13.72;58.16
21086;BME280;72320;50.082;20.000;2024-02-23T12:38:29;97645.48;;;13.71;58.27
21086;BME280;72320;50.082;20.000;2024-02-23T12:40:54;97640.21;;;13.65;58.31
21086;BME280;72320;50.082;20.000;2024-02-23T12:43:21;97648.77;;;13.67;58.37
21086;BME280;72320;50.082;20.000;2024-02-23T12:45:53;97646.59;;;13.59;58.47
21086;BME280;72320;50.082;20.000;2024-02-23T12:48:23;97652.56;;;13.56;58.59
21086;BME280;72320;50.082;20.000;2024-02-23T12:50:50;97655.08;;;13.48;58.67
21086;BME280;72320;50.082;20.000;2024-02-23T12:53:39;97655.44;;;13.42;58.89
21086;BME280;72320;50.082;20.000;2024-02-23T12:56:08;97657.22;;;13.29;59.17
21086;BME280;72320;50.082;20.000;2024-02-23T12:58:40;97654.33;;;13.03;59.41
21086;BME280;72320;50.082;20.000;2024-02-23T13:01:07;97642.34;;;12.79;59.73
21086;BME280;72320;50.082;20.000;2024-02-23T13:03:34;97635.37;;;12.91;60.38
21086;BME280;72320;50.082;20.000;2024-02-23T13:06:01;97649.33;;;13.18;60.68
21086;BME280;72320;50.082;20.000;2024-02-23T13:08:28;97655.62;;;13.39;60.59
21086;BME280;72320;50.082;20.000;2024-02-23T13:10:54;97661.10;;;13.39;60.43
21086;BME280;72320;50.082;20.000;2024-02-23T13:13:22;97664.91;;;13.26;60.46
21086;BME280;72320;50.082;20.000;2024-02-23T13:15:50;97671.02;;;13.01;60.49
21086;BME280;72320;50.082;20.000;2024-02-23T13:18:17;97667.86;;;12.77;60.74
21086;BME280;72320;50.082;20.000;2024-02-23T13:20:43;97666.39;;;12.71;61.06
21086;BME280;72320;50.082;20.000;2024-02-23T13:23:10;97669.28;;;12.78;61.26
21086;BME280;72320;50.082;20.000;2024-02-23T13:25:41;97665.33;;;12.83;61.45
21086;BME280;72320;50.082;20.000;2024-02-23T13:28:08;97662.84;;;12.84;61.60